Webcam 1 more information Webcam 1


Webcam 2 more information Webcam 2


avvertimento per Temporali more information blitzortung!


altri nostri siti meteo:

Pomeziameteo 1Sito sul meteo

Pomeziameteo DashboardSito sul meteo

Caput FrigorisSito sul meteo

BarcellonameteoSito sul meteo

MeteoipassiSito sul meteo

ViterbometeoSito sul meteo

MeteotortoretoSito sul meteo

Stazione LineameteoSito sul meteo



Temporali Inizio validita dal: 19-09-2018 11:00 Fino: 16:59 Allerta per: Temporali Livello: Giallo info button

Weather Underground Storia pagina Testo

Quotidiano Riepilogo per Settembre 19, 2018 Unita:  Metrico    Inglese   Entrambi
« Indietro Day
Avanti Day »
Quotidiano Settimanale mensile Annuale Personalizzato
  Attuale: Max: Min: Media:
Temperatura: -6.4 °C -17.8 °C -7.8 °C -5.9 °C
P.to Rugiada: -9.6 °C -17.8 °C -15.5 °C -11.2 °C
Umidita: 70 % Humidity % 26 % 58 %
Vel. Vento: 0 km/h 0 km/h 0 km/h 8.5 km/h
Raffiche: 7.7 km/h 0 km/h - -
Vento:Calm - - SSW
Pressione: 34428.8 hPa 0 hPa 34384.8 hPa -
Precipitazioni: 0 mm      
Historical Graphs
 
 
Dati di tabella per il Settembre 19, 2018
Tempo Temperatura P.to Rugiada Pressione Vento Vel. Vento Raffiche Umidita Tasso delle precipitazioni (oraria)
-17.8 °C -17.8 °C 0 hPa Calm     Humidity % 0 mm
00:00 -6.9 °C -9.1 °C 34428.8 hPa WSW 7.7 km/h 12.9 km/h 79 % 0 mm
00:05 -6.9 °C -9 °C 34428.8 hPa West 7.7 km/h 18.2 km/h 79 % 0 mm
00:10 -6.9 °C -9 °C 34428.8 hPa WSW 10.3 km/h 15.6 km/h 79 % 0 mm
00:15 -7 °C -9.2 °C 34428.8 hPa West 5.1 km/h 12.9 km/h 78 % 0 mm
00:20 -7.1 °C -9.4 °C 34428.8 hPa West 5.1 km/h 10.3 km/h 77 % 0 mm
00:25 -7 °C -9 °C 34428.8 hPa West 7.7 km/h 12.9 km/h 80 % 0 mm
00:30 -7 °C -9 °C 34428.8 hPa SW 7.7 km/h 10.3 km/h 80 % 0 mm
00:35 -7 °C -9 °C 34428.8 hPa West 10.3 km/h 15.6 km/h 80 % 0 mm
00:40 -7 °C -9 °C 34395 hPa NW 10.3 km/h 12.9 km/h 80 % 0 mm
00:45 -7.1 °C -9.3 °C 34395 hPa WNW 7.7 km/h 10.3 km/h 78 % 0 mm
00:50 -7.2 °C -9.3 °C 34395 hPa West 10.3 km/h 12.9 km/h 78 % 0 mm
00:55 -7.1 °C -9.1 °C 34428.8 hPa West 5.1 km/h 10.3 km/h 80 % 0 mm
01:00 -7.1 °C -9.1 °C 34428.8 hPa WNW 7.7 km/h 10.3 km/h 80 % 0 mm
01:05 -7.2 °C -9.3 °C 34428.8 hPa WNW 7.7 km/h 10.3 km/h 79 % 0 mm
01:10 -7.2 °C -9.1 °C 34428.8 hPa WSW 10.3 km/h 15.6 km/h 80 % 0 mm
01:15 -7.1 °C -9.1 °C 34428.8 hPa WSW 12.9 km/h 20.8 km/h 80 % 0 mm
01:20 -7.1 °C -9.1 °C 34428.8 hPa WSW 12.9 km/h 20.8 km/h 80 % 0 mm
01:25 -7.1 °C -9.2 °C 34428.8 hPa NW 5.1 km/h 15.6 km/h 79 % 0 mm
01:30 -7.2 °C -9.3 °C 34428.8 hPa West 7.7 km/h 10.3 km/h 78 % 0 mm
01:35 -7.2 °C -9.3 °C 34428.8 hPa West 7.7 km/h 15.6 km/h 79 % 0 mm
01:40 -7.1 °C -9.2 °C 34428.8 hPa West 10.3 km/h 15.6 km/h 79 % 0 mm
01:45 -7.1 °C -9.3 °C 34428.8 hPa West 10.3 km/h 12.9 km/h 78 % 0 mm
01:50 -7.1 °C -9.3 °C 34428.8 hPa WSW 10.3 km/h 12.9 km/h 78 % 0 mm
01:55 -7.1 °C -9.2 °C 34428.8 hPa West 18.2 km/h 20.8 km/h 79 % 0 mm
02:00 -7.2 °C -9.3 °C 34428.8 hPa WSW 10.3 km/h 15.6 km/h 79 % 0 mm
02:05 -7.2 °C -9.3 °C 34428.8 hPa WSW 10.3 km/h 15.6 km/h 79 % 0 mm
02:10 -7.2 °C -9.3 °C 34428.8 hPa West 10.3 km/h 12.9 km/h 79 % 0 mm
02:15 -7.2 °C -9.1 °C 34428.8 hPa WNW 7.7 km/h 20.8 km/h 80 % 0 mm
02:20 -7.2 °C -9.3 °C 34428.8 hPa WSW 10.3 km/h 20.8 km/h 79 % 0 mm
02:25 -7.3 °C -9.3 °C 34428.8 hPa WSW 12.9 km/h 20.8 km/h 80 % 0 mm
02:30 -7.3 °C -9.3 °C 34428.8 hPa West 10.3 km/h 15.6 km/h 80 % 0 mm
02:35 -7.2 °C -9.2 °C 34428.8 hPa West 12.9 km/h 15.6 km/h 80 % 0 mm
02:40 -7.2 °C -9.2 °C 34428.8 hPa West 10.3 km/h 20.8 km/h 80 % 0 mm
02:45 -7.3 °C -9.3 °C 34428.8 hPa West 10.3 km/h 18.2 km/h 80 % 0 mm
02:50 -7.3 °C -9.3 °C 34428.8 hPa WSW 10.3 km/h 18.2 km/h 80 % 0 mm
02:55 -7.3 °C -9.3 °C 34428.8 hPa WSW 10.3 km/h 20.8 km/h 80 % 0 mm
03:00 -7.3 °C -9.3 °C 34428.8 hPa West 5.1 km/h 15.6 km/h 80 % 0 mm
03:05 -7.3 °C -9.3 °C 34428.8 hPa WSW 10.3 km/h 12.9 km/h 80 % 0 mm
03:10 -7.4 °C -9.3 °C 34428.8 hPa WSW 7.7 km/h 15.6 km/h 80 % 0 mm
03:15 -7.4 °C -9.3 °C 34428.8 hPa WSW 5.1 km/h 15.6 km/h 80 % 0 mm
03:20 -7.4 °C -9.3 °C 34428.8 hPa SSW 5.1 km/h 10.3 km/h 80 % 0 mm
03:25 -7.4 °C -9.3 °C 34428.8 hPa Calm   10.3 km/h 80 % 0 mm
03:30 -7.4 °C -9.4 °C 34442.4 hPa WSW 7.7 km/h 12.9 km/h 80 % 0 mm
03:35 -7.4 °C -9.3 °C 34442.4 hPa West 7.7 km/h 12.9 km/h 81 % 0 mm
03:40 -7.4 °C -9.3 °C 34442.4 hPa WSW 7.7 km/h 10.3 km/h 81 % 0 mm
03:45 -7.4 °C -9.3 °C 34442.4 hPa WSW 10.3 km/h 12.9 km/h 81 % 0 mm
03:50 -7.4 °C -9.3 °C 34428.8 hPa SW 7.7 km/h 12.9 km/h 81 % 0 mm
03:55 -7.4 °C -9.4 °C 34442.4 hPa WSW 10.3 km/h 18.2 km/h 80 % 0 mm
04:00 -7.4 °C -9.6 °C 34442.4 hPa WSW 18.2 km/h 20.8 km/h 79 % 0 mm
04:05 -7.4 °C -9.6 °C 34442.4 hPa WSW 10.3 km/h 25.9 km/h 79 % 0 mm
04:10 -7.5 °C -9.6 °C 34442.4 hPa West 15.6 km/h 25.9 km/h 79 % 0 mm
04:15 -7.5 °C -9.6 °C 34442.4 hPa West 18.2 km/h 20.8 km/h 79 % 0 mm
04:20 -7.6 °C -9.6 °C 34442.4 hPa West 12.9 km/h 18.2 km/h 79 % 0 mm
04:25 -7.6 °C -9.6 °C 34442.4 hPa WSW 7.7 km/h 20.8 km/h 79 % 0 mm
04:30 -7.6 °C -9.6 °C 34442.4 hPa WSW 7.7 km/h 12.9 km/h 79 % 0 mm
04:35 -7.6 °C -9.6 °C 34442.4 hPa Calm   12.9 km/h 79 % 0 mm
04:40 -7.6 °C -9.6 °C 34405.1 hPa West 10.3 km/h 12.9 km/h 79 % 0 mm
04:45 -7.6 °C -9.7 °C 34405.1 hPa WSW 12.9 km/h 18.2 km/h 79 % 0 mm
04:50 -7.6 °C -9.7 °C 34405.1 hPa West 7.7 km/h 12.9 km/h 79 % 0 mm
04:55 -7.6 °C -9.7 °C 34442.4 hPa Calm   7.7 km/h 79 % 0 mm
05:00 -7.7 °C -9.8 °C 34442.4 hPa SW 7.7 km/h 12.9 km/h 78 % 0 mm
05:05 -7.7 °C -9.8 °C 34442.4 hPa WSW 10.3 km/h 12.9 km/h 79 % 0 mm
05:10 -7.7 °C -9.8 °C 34442.4 hPa SW 7.7 km/h 12.9 km/h 79 % 0 mm
05:15 -7.7 °C -9.8 °C 34442.4 hPa SW 7.7 km/h 12.9 km/h 79 % 0 mm
05:20 -7.7 °C -9.8 °C 34442.4 hPa West 10.3 km/h 12.9 km/h 79 % 0 mm
05:25 -7.7 °C -9.8 °C 34442.4 hPa WSW 10.3 km/h 25.9 km/h 78 % 0 mm
05:30 -7.7 °C -9.9 °C 34442.4 hPa West 10.3 km/h 15.6 km/h 77 % 0 mm
05:35 -7.7 °C -9.9 °C 34442.4 hPa WSW 10.3 km/h 18.2 km/h 77 % 0 mm
05:40 -7.7 °C -10.1 °C 34442.4 hPa West 10.3 km/h 20.8 km/h 76 % 0 mm
05:45 -7.7 °C -10.1 °C 34442.4 hPa WSW 12.9 km/h 20.8 km/h 76 % 0 mm
05:50 -7.7 °C -10.1 °C 34442.4 hPa WSW 12.9 km/h 18.2 km/h 76 % 0 mm
05:55 -7.8 °C -10.2 °C 34405.1 hPa WSW 10.3 km/h 18.2 km/h 76 % 0 mm
06:00 -7.8 °C -10.2 °C 34405.1 hPa WSW 10.3 km/h 20.8 km/h 76 % 0 mm
06:05 -7.8 °C -10.2 °C 34405.1 hPa West 7.7 km/h 15.6 km/h 76 % 0 mm
06:10 -7.8 °C -10.1 °C 34405.1 hPa WSW 10.3 km/h 12.9 km/h 77 % 0 mm
06:15 -7.8 °C -9.9 °C 34405.1 hPa West 12.9 km/h 15.6 km/h 78 % 0 mm
06:20 -7.8 °C -9.9 °C 34405.1 hPa WSW 10.3 km/h 20.8 km/h 78 % 0 mm
06:25 -7.8 °C -10 °C 34442.4 hPa West 10.3 km/h 20.8 km/h 78 % 0 mm
06:30 -7.8 °C -10.1 °C 34442.4 hPa West 18.2 km/h 20.8 km/h 77 % 0 mm
06:35 -7.8 °C -10.2 °C 34442.4 hPa West 5.1 km/h 12.9 km/h 76 % 0 mm
06:40 -7.8 °C -10.2 °C 34442.4 hPa SW 7.7 km/h 12.9 km/h 76 % 0 mm
06:45 -7.8 °C -10.2 °C 34442.4 hPa WSW 7.7 km/h 12.9 km/h 76 % 0 mm
06:50 -7.8 °C -10.2 °C 34442.4 hPa WSW 12.9 km/h 15.6 km/h 76 % 0 mm
06:55 -7.7 °C -10.2 °C 34442.4 hPa WSW 12.9 km/h 20.8 km/h 75 % 0 mm
07:00 -7.7 °C -10.4 °C 34442.4 hPa WSW 12.9 km/h 23.3 km/h 74 % 0 mm
07:05 -7.7 °C -10.4 °C 34442.4 hPa West 10.3 km/h 20.8 km/h 73 % 0 mm
07:10 -7.7 °C -10.4 °C 34442.4 hPa WSW 10.3 km/h 15.6 km/h 73 % 0 mm
07:15 -7.7 °C -10.4 °C 34442.4 hPa WSW 7.7 km/h 18.2 km/h 73 % 0 mm
07:20 -7.7 °C -10.5 °C 34442.4 hPa West 10.3 km/h 15.6 km/h 72 % 0 mm
07:25 -7.7 °C -10.5 °C 34442.4 hPa WSW 10.3 km/h 20.8 km/h 72 % 0 mm
07:30 -7.7 °C -10.5 °C 34442.4 hPa WSW 10.3 km/h 18.2 km/h 72 % 0 mm
07:35 -7.7 °C -10.5 °C 34442.4 hPa West 12.9 km/h 20.8 km/h 72 % 0 mm
07:40 -7.7 °C -10.5 °C 34442.4 hPa WSW 10.3 km/h 18.2 km/h 72 % 0 mm
07:45 -7.6 °C -10.5 °C 34442.4 hPa West 7.7 km/h 15.6 km/h 72 % 0 mm
07:50 -7.6 °C -10.5 °C 34442.4 hPa West 10.3 km/h 18.2 km/h 72 % 0 mm
07:55 -7.6 °C -10.6 °C 34442.4 hPa WSW 10.3 km/h 15.6 km/h 71 % 0 mm
08:00 -7.6 °C -10.6 °C 34442.4 hPa WSW 10.3 km/h 15.6 km/h 71 % 0 mm
08:05 -7.5 °C -10.5 °C 34442.4 hPa WSW 5.1 km/h 12.9 km/h 71 % 0 mm
08:10 -7.4 °C -10.4 °C 34442.4 hPa WNW 12.9 km/h 15.6 km/h 71 % 0 mm
08:15 -7.3 °C -10.4 °C 34428.8 hPa WSW 7.7 km/h 15.6 km/h 70 % 0 mm
08:20 -7.3 °C -10.5 °C 34428.8 hPa WSW 10.3 km/h 15.6 km/h 69 % 0 mm
08:25 -7.2 °C -10.7 °C 34428.8 hPa West 10.3 km/h 18.2 km/h 67 % 0 mm
08:30 -7.1 °C -11 °C 34428.8 hPa WSW 10.3 km/h 18.2 km/h 64 % 0 mm
08:35 -6.9 °C -11.1 °C 34428.8 hPa WSW 10.3 km/h 15.6 km/h 62 % 0 mm
08:40 -6.8 °C -11.3 °C 34428.8 hPa WSW 5.1 km/h 15.6 km/h 60 % 0 mm
08:45 -6.7 °C -11.2 °C 34428.8 hPa WSW 5.1 km/h 12.9 km/h 60 % 0 mm
08:50 -6.7 °C -11.3 °C 34428.8 hPa SW 10.3 km/h 15.6 km/h 59 % 0 mm
08:55 -6.6 °C -11.5 °C 34428.8 hPa WSW 7.7 km/h 12.9 km/h 57 % 0 mm
09:00 -6.5 °C -11.4 °C 34428.8 hPa SSW 7.7 km/h 12.9 km/h 57 % 0 mm
09:05 -6.4 °C -11.2 °C 34428.8 hPa West 10.3 km/h 20.8 km/h 58 % 0 mm
09:10 -6.3 °C -11.1 °C 34428.8 hPa Calm   20.8 km/h 58 % 0 mm
09:15 -6.2 °C -11.1 °C 34428.8 hPa SW 5.1 km/h 12.9 km/h 57 % 0 mm
09:20 -6.1 °C -12 °C 34428.8 hPa West 7.7 km/h 15.6 km/h 51 % 0 mm
09:25 -6 °C -11.9 °C 34428.8 hPa West 7.7 km/h 12.9 km/h 51 % 0 mm
09:30 -5.8 °C -12.1 °C 34428.8 hPa SW 5.1 km/h 10.3 km/h 49 % 0 mm
09:35 -5.7 °C -12.4 °C 34428.8 hPa Calm   12.9 km/h 46 % 0 mm
09:40 -5.6 °C -12.9 °C 34428.8 hPa WSW 5.1 km/h 15.6 km/h 43 % 0 mm
09:45 -5.4 °C -12.7 °C 34428.8 hPa SW 5.1 km/h 10.3 km/h 43 % 0 mm
09:50 -5.3 °C -12.6 °C 34428.8 hPa SW 5.1 km/h 10.3 km/h 43 % 0 mm
09:55 -5.2 °C -12.6 °C 34428.8 hPa WSW 5.1 km/h 10.3 km/h 43 % 0 mm
10:00 -5.2 °C -13.3 °C 34428.8 hPa WSW 5.1 km/h 7.7 km/h 39 % 0 mm
10:05 -4.9 °C -13.2 °C 34428.8 hPa SW 5.1 km/h 10.3 km/h 39 % 0 mm
10:10 -4.9 °C -13.5 °C 34428.8 hPa SW 7.7 km/h 15.6 km/h 37 % 0 mm
10:15 -4.9 °C -13.7 °C 34428.8 hPa South 7.7 km/h 10.3 km/h 36 % 0 mm
10:20 -4.8 °C -13.4 °C 34428.8 hPa Calm   7.7 km/h 37 % 0 mm
10:25 -4.7 °C -13.6 °C 34428.8 hPa Calm   5.1 km/h 36 % 0 mm
10:30 -4.6 °C -14.2 °C 34428.8 hPa Calm   5.1 km/h 33 % 0 mm
10:35 -4.3 °C -13.9 °C 34428.8 hPa Calm     33 % 0 mm
10:40 -4.2 °C -14.4 °C 34428.8 hPa Calm   5.1 km/h 31 % 0 mm
10:45 -4.2 °C -14.4 °C 34428.8 hPa Calm   7.7 km/h 31 % 0 mm
10:50 -4.2 °C -14.4 °C 34428.8 hPa Calm   10.3 km/h 31 % 0 mm
10:55 -4.2 °C -14.3 °C 34428.8 hPa Calm   10.3 km/h 31 % 0 mm
11:00 -4.2 °C -14.6 °C 34428.8 hPa ESE 5.1 km/h 10.3 km/h 30 % 0 mm
11:05 -4.1 °C -14.3 °C 34428.8 hPa NE 5.1 km/h 10.3 km/h 31 % 0 mm
11:10 -4.1 °C -15.1 °C 34428.8 hPa ESE 7.7 km/h 10.3 km/h 28 % 0 mm
11:15 -4.1 °C -14.5 °C 34428.8 hPa Calm   10.3 km/h 30 % 0 mm
11:20 -3.9 °C -15.5 °C 34428.8 hPa ESE 10.3 km/h 12.9 km/h 26 % 0 mm
11:25 -3.8 °C -15.2 °C 34428.8 hPa Calm   7.7 km/h 27 % 0 mm
11:30 -3.7 °C -14.8 °C 34428.8 hPa Calm     28 % 0 mm
11:35 -3.6 °C -14.1 °C 34428.8 hPa East 5.1 km/h 7.7 km/h 30 % 0 mm
11:40 -3.6 °C -14.1 °C 34428.8 hPa Calm   7.7 km/h 30 % 0 mm
11:45 -3.6 °C -14.6 °C 34428.8 hPa SSE 7.7 km/h 12.9 km/h 28 % 0 mm
11:50 -3.6 °C -14.6 °C 34428.8 hPa Calm   15.6 km/h 28 % 0 mm
11:55 -3.6 °C -15.2 °C 34428.8 hPa South 5.1 km/h 10.3 km/h 26 % 0 mm
12:00 -3.4 °C -14.8 °C 34418.7 hPa East 5.1 km/h 12.9 km/h 27 % 0 mm
12:05 -3.5 °C -14.8 °C 34428.8 hPa ENE 10.3 km/h 12.9 km/h 27 % 0 mm
12:10 -3.6 °C -14.7 °C 34428.8 hPa East 12.9 km/h 18.2 km/h 28 % 0 mm
12:15 -3.7 °C -14.2 °C 34428.8 hPa ENE 7.7 km/h 12.9 km/h 30 % 0 mm
12:20 -3.6 °C -14.1 °C 34428.8 hPa East 5.1 km/h 10.3 km/h 30 % 0 mm
12:25 -3.5 °C -14.3 °C 34428.8 hPa ENE 10.3 km/h 18.2 km/h 29 % 0 mm
12:30 -3.5 °C -14.6 °C 34428.8 hPa East 10.3 km/h 20.8 km/h 28 % 0 mm
12:35 -3.4 °C -14.5 °C 34418.7 hPa East 7.7 km/h 15.6 km/h 28 % 0 mm
12:40 -3.4 °C -14.2 °C 34418.7 hPa SE 12.9 km/h 20.8 km/h 29 % 0 mm
12:45 -3.3 °C -13.6 °C 34418.7 hPa East 7.7 km/h 20.8 km/h 31 % 0 mm
12:50 -3.4 °C -13.9 °C 34418.7 hPa East 15.6 km/h 25.9 km/h 30 % 0 mm
12:55 -3.4 °C -13.7 °C 34384.8 hPa East 12.9 km/h 20.8 km/h 31 % 0 mm
13:00 -3.4 °C -13.2 °C 34384.8 hPa ESE 15.6 km/h 20.8 km/h 33 % 0 mm
13:05 -3.5 °C -12.6 °C 34395 hPa ESE 20.8 km/h 25.9 km/h 36 % 0 mm
13:10 -3.6 °C -12.6 °C 34395 hPa ESE 15.6 km/h 23.3 km/h 36 % 0 mm
13:15 -3.5 °C -12.7 °C 34395 hPa SE 18.2 km/h 25.9 km/h 35 % 0 mm
13:20 -3.5 °C -13 °C 34395 hPa East 15.6 km/h 20.8 km/h 34 % 0 mm
13:25 -3.4 °C -12.9 °C 34384.8 hPa ENE 10.3 km/h 20.8 km/h 34 % 0 mm
13:30 -3.4 °C -12.7 °C 34384.8 hPa ESE 15.6 km/h 25.9 km/h 35 % 0 mm
13:35 -3.3 °C -13.3 °C 34384.8 hPa ENE 12.9 km/h 25.9 km/h 32 % 0 mm
13:40 -3.4 °C -13.4 °C 34384.8 hPa East 20.8 km/h 23.3 km/h 32 % 0 mm
13:45 -3.3 °C -13.3 °C 34384.8 hPa East 12.9 km/h 23.3 km/h 32 % 0 mm
13:50 -3.3 °C -13.3 °C 34384.8 hPa ESE 7.7 km/h 25.9 km/h 32 % 0 mm
13:55 -3.3 °C -13.3 °C 34384.8 hPa SE 18.2 km/h 25.9 km/h 32 % 0 mm
14:00 -3.4 °C -13.7 °C 34384.8 hPa SE 18.2 km/h 25.9 km/h 31 % 0 mm
14:05 -3.4 °C -13.2 °C 34384.8 hPa ENE 15.6 km/h 25.9 km/h 33 % 0 mm
14:10 -3.4 °C -13.2 °C 34384.8 hPa East 15.6 km/h 20.8 km/h 33 % 0 mm
14:15 -3.3 °C -13.3 °C 34384.8 hPa East 23.3 km/h 31.1 km/h 32 % 0 mm
14:20 -3.4 °C -12.9 °C 34384.8 hPa ENE 15.6 km/h 31.1 km/h 34 % 0 mm
14:25 -3.4 °C -13.2 °C 34384.8 hPa ESE 12.9 km/h 25.9 km/h 33 % 0 mm
14:30 -3.4 °C -13.2 °C 34384.8 hPa ENE 12.9 km/h 25.9 km/h 33 % 0 mm
14:35 -3.5 °C -13 °C 34395 hPa East 18.2 km/h 25.9 km/h 34 % 0 mm
14:40 -3.7 °C -12.9 °C 34395 hPa East 20.8 km/h 33.6 km/h 35 % 0 mm
14:45 -3.8 °C -13.2 °C 34395 hPa NE 23.3 km/h 28.5 km/h 34 % 0 mm
14:50 -3.8 °C -13.3 °C 34395 hPa NE 15.6 km/h 25.9 km/h 34 % 0 mm
14:55 -3.9 °C -13.1 °C 34395 hPa NE 10.3 km/h 25.9 km/h 35 % 0 mm
15:00 -3.8 °C -13.1 °C 34395 hPa NNE 12.9 km/h 25.9 km/h 35 % 0 mm
15:05 -3.8 °C -13.1 °C 34395 hPa ESE 18.2 km/h 20.8 km/h 35 % 0 mm
15:10 -3.9 °C -12.9 °C 34395 hPa East 15.6 km/h 23.3 km/h 36 % 0 mm
15:15 -3.9 °C -12.9 °C 34395 hPa East 18.2 km/h 25.9 km/h 36 % 0 mm
15:20 -4.1 °C -12.8 °C 34395 hPa NE 15.6 km/h 23.3 km/h 37 % 0 mm
15:25 -4.1 °C -12.8 °C 34395 hPa ESE 15.6 km/h 20.8 km/h 37 % 0 mm
15:30 -4.1 °C -12.4 °C 34395 hPa ESE 12.9 km/h 20.8 km/h 39 % 0 mm
15:35 -4.2 °C -12.2 °C 34395 hPa East 12.9 km/h 25.9 km/h 40 % 0 mm
15:40 -4.2 °C -12.3 °C 34395 hPa ENE 15.6 km/h 20.8 km/h 40 % 0 mm
15:45 -4.3 °C -12.6 °C 34395 hPa East 12.9 km/h 20.8 km/h 39 % 0 mm
15:50 -4.3 °C -12.3 °C 34395 hPa ENE 15.6 km/h 20.8 km/h 40 % 0 mm
15:55 -4.4 °C -12.4 °C 34395 hPa East 15.6 km/h 25.9 km/h 40 % 0 mm
16:00 -4.5 °C -12.6 °C 34395 hPa ENE 12.9 km/h 20.8 km/h 40 % 0 mm
16:05 -4.5 °C -12.9 °C 34395 hPa East 10.3 km/h 18.2 km/h 38 % 0 mm
16:10 -4.6 °C -13 °C 34395 hPa East 10.3 km/h 20.8 km/h 38 % 0 mm
16:15 -4.6 °C -13.2 °C 34395 hPa East 10.3 km/h 15.6 km/h 37 % 0 mm
16:20 -4.6 °C -13.1 °C 34395 hPa East 10.3 km/h 15.6 km/h 38 % 0 mm
16:25 -4.6 °C -12.8 °C 34395 hPa East 10.3 km/h 12.9 km/h 39 % 0 mm
16:30 -4.7 °C -12.4 °C 34395 hPa Calm   10.3 km/h 41 % 0 mm
16:35 -4.7 °C -12.6 °C 34395 hPa Calm   10.3 km/h 41 % 0 mm
16:40 -4.8 °C -12.4 °C 34395 hPa Calm   10.3 km/h 42 % 0 mm
16:45 -4.8 °C -12.2 °C 34395 hPa Calm   5.1 km/h 43 % 0 mm
16:50 -4.8 °C -12.2 °C 34395 hPa Calm     43 % 0 mm
16:55 -4.9 °C -12.3 °C 34395 hPa Calm     43 % 0 mm
17:00 -5 °C -11.8 °C 34395 hPa Calm     46 % 0 mm
17:05 -5.1 °C -11 °C 34395 hPa Calm   5.1 km/h 51 % 0 mm
17:10 -5.2 °C -10.2 °C 34395 hPa Calm   5.1 km/h 57 % 0 mm
17:15 -5.3 °C -9.7 °C 34395 hPa Calm   10.3 km/h 61 % 0 mm
17:20 -5.4 °C -9.7 °C 34395 hPa Calm   10.3 km/h 62 % 0 mm
17:25 -5.4 °C -9.4 °C 34395 hPa WNW 7.7 km/h 10.3 km/h 64 % 0 mm
17:30 -5.5 °C -9.2 °C 34395 hPa Calm   10.3 km/h 66 % 0 mm
17:35 -5.6 °C -9 °C 34395 hPa WNW 7.7 km/h 10.3 km/h 68 % 0 mm
17:40 -5.6 °C -8.9 °C 34395 hPa Calm   10.3 km/h 69 % 0 mm
17:45 -5.6 °C -8.8 °C 34395 hPa WSW 5.1 km/h 7.7 km/h 70 % 0 mm
17:50 -5.4 °C -8.3 °C 34395 hPa WSW 12.9 km/h 25.9 km/h 73 % 0 mm
17:55 -5.6 °C -8.7 °C 34428.8 hPa WSW 15.6 km/h 20.8 km/h 71 % 0 mm
18:00 -5.6 °C -8.9 °C 34428.8 hPa WSW 10.3 km/h 25.9 km/h 69 % 0 mm
18:05 -5.6 °C -9.1 °C 34428.8 hPa West 15.6 km/h 18.2 km/h 68 % 0 mm
18:10 -5.7 °C -9.3 °C 34428.8 hPa West 10.3 km/h 20.8 km/h 67 % 0 mm
18:15 -5.8 °C -9.5 °C 34428.8 hPa WSW 15.6 km/h 20.8 km/h 66 % 0 mm
18:20 -5.8 °C -9.5 °C 34428.8 hPa West 12.9 km/h 20.8 km/h 66 % 0 mm
18:25 -5.8 °C -9.8 °C 34428.8 hPa West 10.3 km/h 20.8 km/h 64 % 0 mm
18:30 -5.8 °C -9.9 °C 34428.8 hPa WSW 10.3 km/h 20.8 km/h 63 % 0 mm
18:35 -5.8 °C -9.9 °C 34428.8 hPa WSW 12.9 km/h 23.3 km/h 63 % 0 mm
18:40 -5.8 °C -9.9 °C 34428.8 hPa West 12.9 km/h 20.8 km/h 63 % 0 mm
18:45 -5.9 °C -9.9 °C 34428.8 hPa WSW 10.3 km/h 20.8 km/h 63 % 0 mm
18:50 -5.9 °C -10.1 °C 34428.8 hPa SW 10.3 km/h 20.8 km/h 62 % 0 mm
18:55 -5.9 °C -10.2 °C 34428.8 hPa SW 10.3 km/h 20.8 km/h 61 % 0 mm
19:00 -5.9 °C -10.3 °C 34428.8 hPa West 10.3 km/h 18.2 km/h 61 % 0 mm
19:05 -5.9 °C -10.3 °C 34428.8 hPa WSW 10.3 km/h 12.9 km/h 61 % 0 mm
19:10 -5.9 °C -10.4 °C 34428.8 hPa WSW 5.1 km/h 18.2 km/h 60 % 0 mm
19:15 -5.9 °C -10.6 °C 34428.8 hPa WSW 7.7 km/h 15.6 km/h 59 % 0 mm
19:20 -6 °C -10.8 °C 34428.8 hPa WSW 10.3 km/h 18.2 km/h 58 % 0 mm
19:25 -6 °C -10.8 °C 34428.8 hPa West 10.3 km/h 12.9 km/h 58 % 0 mm
19:30 -6 °C -10.8 °C 34428.8 hPa WNW 5.1 km/h 12.9 km/h 58 % 0 mm
19:35 -6 °C -10.9 °C 34428.8 hPa West 7.7 km/h 12.9 km/h 57 % 0 mm
19:40 -6 °C -11.1 °C 34428.8 hPa WSW 7.7 km/h 12.9 km/h 56 % 0 mm
19:45 -6 °C -11.1 °C 34428.8 hPa Calm   10.3 km/h 56 % 0 mm
19:50 -6 °C -11.2 °C 34428.8 hPa West 5.1 km/h 12.9 km/h 55 % 0 mm
19:55 -6 °C -11.2 °C 34428.8 hPa Calm   7.7 km/h 55 % 0 mm
20:00 -6 °C -11.2 °C 34428.8 hPa Calm   7.7 km/h 55 % 0 mm
20:05 -6.1 °C -11.3 °C 34428.8 hPa Calm   7.7 km/h 55 % 0 mm
20:10 -6.2 °C -11.1 °C 34428.8 hPa SW 5.1 km/h 10.3 km/h 57 % 0 mm
20:15 -6.2 °C -10.9 °C 34428.8 hPa Calm   10.3 km/h 59 % 0 mm
20:20 -6.2 °C -10.6 °C 34428.8 hPa Calm   5.1 km/h 61 % 0 mm
20:25 -6.2 °C -10.4 °C 34428.8 hPa Calm     62 % 0 mm
20:30 -6.2 °C -10.2 °C 34428.8 hPa Calm   7.7 km/h 64 % 0 mm
20:35 -6.2 °C -10.2 °C 34428.8 hPa Calm   7.7 km/h 64 % 0 mm
20:40 -6.2 °C -10.1 °C 34428.8 hPa Calm   10.3 km/h 65 % 0 mm
20:45 -6.3 °C -9.9 °C 34428.8 hPa SW 5.1 km/h 10.3 km/h 66 % 0 mm
20:50 -6.3 °C -9.9 °C 34428.8 hPa Calm     67 % 0 mm
20:55 -6.3 °C -9.9 °C 34428.8 hPa Calm   5.1 km/h 67 % 0 mm
21:00 -6.3 °C -9.8 °C 34428.8 hPa Calm   7.7 km/h 68 % 0 mm
21:05 -6.4 °C -9.8 °C 34428.8 hPa Calm   7.7 km/h 68 % 0 mm
21:10 -6.4 °C -9.7 °C 34428.8 hPa Calm   5.1 km/h 69 % 0 mm
21:15 -6.4 °C -9.7 °C 34428.8 hPa Calm     69 % 0 mm
21:20 -6.4 °C -9.6 °C 34428.8 hPa Calm   7.7 km/h 70 % 0 mm
Stazione meteorologica di Castelnuovo Vomano (TE)
complimenti di Weather Underground - 3.75 mb

Script sviluppato da  Jim McMurry - jmcmurry@mwt.net Adattato per il modello da  Wim van der Kuil - Leuven-Template.eu

Potete trovare le nostre info meteo anche a:

Weather Underground

AWEKAS

Citizen Weather Observer Program (CWOP)

HAMweather, WeatherForYou, PWS Weather

Strumentazione usata:

Stazione meteo
Oregon 928

Programma gestore dati meteo
WVIEW

Server per i dati meteo
Pc-WDS5

Oregon 928

WVIEW

Pc-WDS5